createdAt,value
2017-01-22T00:00:26.990Z,98.21
2017-01-22T00:01:27.990Z,97.92
2017-01-22T00:02:28.718Z,97.35
2017-01-22T00:03:29.456Z,97.35
2017-01-22T00:04:30.232Z,97.64
2017-01-22T00:05:30.957Z,98.11
2017-01-22T00:06:31.735Z,97.45
2017-01-22T00:07:32.439Z,98.39
2017-01-22T00:08:33.192Z,97.64
2017-01-22T00:09:33.921Z,98.21
2017-01-22T00:10:34.646Z,97.35
2017-01-22T00:11:35.348Z,97.54
2017-01-22T00:12:36.057Z,97.11
2017-01-22T00:13:36.770Z,97.02
2017-01-22T00:14:37.458Z,97.07
2017-01-22T00:15:38.135Z,97.07
2017-01-22T00:16:38.821Z,97.64
2017-01-22T00:17:39.494Z,97.4
2017-01-22T00:18:40.202Z,97.64
2017-01-22T00:19:40.887Z,97.83
2017-01-22T00:20:41.567Z,97.83
2017-01-22T00:21:42.240Z,96.83
2017-01-22T00:22:42.928Z,97.07
2017-01-22T00:23:43.661Z,97.83
2017-01-22T00:24:44.477Z,97.26
2017-01-22T00:25:45.147Z,97.45
2017-01-22T00:26:45.820Z,97.64
2017-01-22T00:27:46.511Z,97.16
2017-01-22T00:28:47.258Z,96.97
2017-01-22T00:29:47.980Z,97.16
2017-01-22T00:30:48.646Z,96.73
2017-01-22T00:31:49.349Z,96.88
2017-01-22T00:32:50.035Z,97.16
2017-01-22T00:33:50.708Z,97.02
2017-01-22T00:34:51.391Z,97.54
2017-01-22T00:35:52.065Z,97.59
2017-01-22T00:36:52.764Z,97.87
2017-01-22T00:37:53.453Z,97.68
2017-01-22T00:38:54.131Z,97.64
2017-01-22T00:39:54.820Z,97.73
2017-01-22T00:40:55.519Z,97.97
2017-01-22T00:41:56.224Z,97.02
2017-01-22T00:42:56.895Z,97.64
2017-01-22T00:43:57.587Z,97.59
2017-01-22T00:44:58.269Z,97.73
2017-01-22T00:45:58.962Z,97.3
2017-01-22T00:46:59.668Z,97.4
2017-01-22T00:48:00.366Z,97.11
2017-01-22T00:49:01.062Z,97.21
2017-01-22T00:50:01.745Z,97.11
2017-01-22T00:51:02.472Z,97.59
2017-01-22T00:52:03.174Z,97.4
2017-01-22T00:53:03.814Z,97.21
2017-01-22T00:54:04.491Z,97.73
2017-01-22T00:55:05.167Z,97.35
2017-01-22T00:56:05.848Z,96.92
2017-01-22T00:57:06.513Z,97.97
2017-01-22T00:58:07.250Z,97.35
2017-01-22T00:59:07.913Z,97.21
2017-01-22T01:00:08.592Z,97.78
2017-01-22T01:01:09.262Z,97.4
2017-01-22T01:02:09.951Z,97.4
2017-01-22T01:03:10.621Z,97.49
2017-01-22T01:04:11.309Z,98.02
2017-01-22T01:05:12.059Z,97.21
2017-01-22T01:06:12.826Z,97.02
2017-01-22T01:07:13.505Z,97.4
2017-01-22T01:08:14.172Z,97.16
2017-01-22T01:09:14.869Z,97.45
2017-01-22T01:10:15.532Z,97.45
2017-01-22T01:11:16.215Z,97.54
2017-01-22T01:12:16.944Z,97.64
2017-01-22T01:13:17.613Z,97.35
2017-01-22T01:14:18.312Z,96.92
2017-01-22T01:15:19.014Z,96.88
2017-01-22T01:16:19.711Z,96.88
2017-01-22T01:17:20.371Z,96.36
2017-01-22T01:18:21.049Z,97.02
2017-01-22T01:19:21.716Z,97.02
2017-01-22T01:20:22.397Z,97.11
2017-01-22T01:21:23.060Z,97.59
2017-01-22T01:22:23.766Z,97.21
2017-01-22T01:23:24.410Z,96.92
2017-01-22T01:24:25.080Z,96.83
2017-01-22T01:25:25.765Z,96.92
2017-01-22T01:26:26.436Z,97.02
2017-01-22T01:27:27.114Z,96.73
2017-01-22T01:28:27.783Z,97.02
2017-01-22T01:29:28.453Z,97.3
2017-01-22T01:30:29.127Z,97.02
2017-01-22T01:31:29.802Z,97.02
2017-01-22T01:32:30.479Z,97.02
2017-01-22T01:33:31.169Z,97.21
2017-01-22T01:34:31.837Z,97.21
2017-01-22T01:35:32.535Z,96.92
2017-01-22T01:36:33.229Z,96.92
2017-01-22T01:37:33.898Z,96.83
2017-01-22T01:38:35.853Z,97.21
2017-01-22T01:39:36.521Z,97.4
2017-01-22T01:40:37.202Z,98.06
2017-01-22T01:41:37.885Z,97.78
2017-01-22T01:42:38.562Z,97.21
2017-01-22T01:43:39.263Z,97.11
2017-01-22T01:44:39.957Z,97.3
2017-01-22T01:45:40.631Z,97.02
2017-01-22T01:46:41.314Z,97.11
2017-01-22T01:47:41.997Z,97.4
2017-01-22T01:48:42.659Z,97.68
2017-01-22T01:49:43.341Z,97.68
2017-01-22T01:50:44.050Z,97.68
2017-01-22T01:51:44.728Z,97.87
2017-01-22T01:52:45.414Z,97.68
2017-01-22T01:53:46.084Z,97.87
2017-01-22T01:54:46.752Z,97.21
2017-01-22T01:55:47.433Z,97.49
2017-01-22T01:56:48.108Z,97.4
2017-01-22T01:57:48.768Z,97.4
2017-01-22T01:58:49.440Z,98.06
2017-01-22T01:59:50.121Z,97.59
2017-01-22T02:00:50.843Z,97.97
2017-01-22T02:01:51.521Z,97.59
2017-01-22T02:02:52.187Z,97.4
2017-01-22T02:03:52.881Z,97.49
2017-01-22T02:04:53.587Z,97.68
2017-01-22T02:05:54.266Z,97.02
2017-01-22T02:06:54.931Z,97.02
2017-01-22T02:07:55.605Z,97.21
2017-01-22T02:08:56.274Z,97.02
2017-01-22T02:09:56.955Z,96.92
2017-01-22T02:10:57.632Z,97.21
2017-01-22T02:11:58.297Z,97.11
2017-01-22T02:12:58.961Z,97.11
2017-01-22T02:13:59.644Z,97.21
2017-01-22T02:15:00.323Z,96.83
2017-01-22T02:16:00.992Z,97.3
2017-01-22T02:17:01.670Z,96.64
2017-01-22T02:18:05.142Z,97.02
2017-01-22T02:19:05.819Z,97.02
2017-01-22T02:20:06.489Z,96.73
2017-01-22T02:21:07.159Z,97.21
2017-01-22T02:22:07.845Z,96.92
2017-01-22T02:23:08.516Z,97.11
2017-01-22T02:24:09.187Z,96.45
2017-01-22T02:25:09.854Z,97.02
2017-01-22T02:26:10.532Z,95.98
2017-01-22T02:27:11.199Z,95.98
2017-01-22T02:28:11.877Z,96.17
2017-01-22T02:29:12.543Z,96.17
2017-01-22T02:30:13.218Z,96.92
2017-01-22T02:31:13.894Z,96.83
2017-01-22T02:32:14.556Z,96.45
2017-01-22T02:33:15.241Z,96.26
2017-01-22T02:34:15.910Z,96.45
2017-01-22T02:35:16.581Z,96.17
2017-01-22T02:36:17.245Z,95.79
2017-01-22T02:37:17.933Z,95.98
2017-01-22T02:38:18.614Z,95.98
2017-01-22T02:39:19.273Z,95.41
2017-01-22T02:40:19.965Z,95.88
2017-01-22T02:41:20.628Z,95.88
2017-01-22T02:42:21.294Z,96.17
2017-01-22T02:43:21.957Z,96.07
2017-01-22T02:44:22.648Z,95.79
2017-01-22T02:45:23.324Z,95.64
2017-01-22T02:46:24.007Z,96.5
2017-01-22T02:47:24.682Z,96.17
2017-01-22T02:48:25.345Z,95.79
2017-01-22T02:49:26.017Z,96.12
2017-01-22T02:50:26.677Z,96.21
2017-01-22T02:51:27.345Z,96.59
2017-01-22T02:52:28.084Z,96.45
2017-01-22T02:53:28.753Z,96.26
2017-01-22T02:54:29.435Z,95.93
2017-01-22T02:55:30.096Z,95.93
2017-01-22T02:56:30.757Z,96.5
2017-01-22T02:57:31.433Z,96.5
2017-01-22T02:58:32.132Z,96.31
2017-01-22T02:59:32.774Z,96.17
2017-01-22T03:00:33.464Z,96.36
2017-01-22T03:01:34.123Z,96.36
2017-01-22T03:02:34.792Z,96.83
2017-01-22T03:03:35.483Z,96.4
2017-01-22T03:04:36.175Z,95.98
2017-01-22T03:05:36.847Z,96.59
2017-01-22T03:06:37.535Z,96.26
2017-01-22T03:07:38.220Z,96.45
2017-01-22T03:08:38.891Z,96.55
2017-01-22T03:09:39.564Z,96.31
2017-01-22T03:10:40.235Z,96.5
2017-01-22T03:11:40.938Z,96.36
2017-01-22T03:12:41.604Z,96.07
2017-01-22T03:13:42.294Z,95.6
2017-01-22T03:14:42.979Z,95.45
2017-01-22T03:15:43.680Z,95.74
2017-01-22T03:16:44.355Z,95.74
2017-01-22T03:17:45.034Z,96.59
2017-01-22T03:18:45.739Z,96.21
2017-01-22T03:19:46.467Z,96.4
2017-01-22T03:20:47.160Z,96.07
2017-01-22T03:21:47.844Z,96.02
2017-01-22T03:22:48.531Z,95.45
2017-01-22T03:23:49.235Z,95.83
2017-01-22T03:24:49.922Z,96.12
2017-01-22T03:25:50.604Z,96.5
2017-01-22T03:26:51.285Z,96.12
2017-01-22T03:27:51.952Z,96.21
2017-01-22T03:28:52.624Z,96.02
2017-01-22T03:29:53.299Z,96.02
2017-01-22T03:30:53.976Z,95.93
2017-01-22T03:31:54.665Z,96.21
2017-01-22T03:32:55.337Z,96.31
2017-01-22T03:33:56.022Z,96.4
2017-01-22T03:34:56.693Z,96.4
2017-01-22T03:35:57.369Z,96.31
2017-01-22T03:36:58.043Z,96.21
2017-01-22T03:37:58.716Z,96.02
2017-01-22T03:38:59.379Z,96.31
2017-01-22T03:40:00.056Z,96.31
2017-01-22T03:41:00.725Z,96.59
2017-01-22T03:42:01.398Z,95.83
2017-01-22T03:43:02.077Z,95.74
2017-01-22T03:44:02.771Z,95.83
2017-01-22T03:45:03.448Z,96.31
2017-01-22T03:46:04.122Z,96.69
2017-01-22T03:47:04.797Z,95.74
2017-01-22T03:48:05.467Z,95.55
2017-01-22T03:49:06.138Z,96.02
2017-01-22T03:50:06.819Z,96.4
2017-01-22T03:51:07.487Z,96.12
2017-01-22T03:52:08.168Z,96.31
2017-01-22T03:53:08.846Z,96.31
2017-01-22T03:54:09.513Z,95.93
2017-01-22T03:55:10.171Z,95.74
2017-01-22T03:56:10.870Z,96.5
2017-01-22T03:57:11.543Z,96.4
2017-01-22T03:58:12.219Z,96.5
2017-01-22T03:59:12.887Z,96.5
2017-01-22T04:00:13.565Z,96.4
2017-01-22T04:01:14.249Z,96.21
2017-01-22T04:02:14.933Z,96.21
2017-01-22T04:03:15.612Z,96.5
2017-01-22T04:04:16.281Z,96.5
2017-01-22T04:05:16.959Z,96.12
2017-01-22T04:06:17.634Z,96.4
2017-01-22T04:07:18.311Z,96.12
2017-01-22T04:08:18.974Z,96.02
2017-01-22T04:09:19.640Z,95.83
2017-01-22T04:10:20.317Z,96.4
2017-01-22T04:11:21.002Z,96.5
2017-01-22T04:12:21.664Z,96.21
2017-01-22T04:13:22.344Z,96.5
2017-01-22T04:14:23.021Z,96.78
2017-01-22T04:15:23.726Z,96.12
2017-01-22T04:16:24.394Z,96.21
2017-01-22T04:17:25.085Z,96.12
2017-01-22T04:18:25.766Z,96.31
2017-01-22T04:19:26.425Z,96.21
2017-01-22T04:20:27.100Z,96.5
2017-01-22T04:21:27.775Z,97.06
2017-01-22T04:22:28.442Z,96.97
2017-01-22T04:23:29.118Z,96.97
2017-01-22T04:24:29.794Z,96.12
2017-01-22T04:25:30.461Z,96.59
2017-01-22T04:26:31.136Z,96.31
2017-01-22T04:27:31.798Z,96.31
2017-01-22T04:28:32.468Z,96.5
2017-01-22T04:29:33.147Z,96.69
2017-01-22T04:30:33.806Z,96.97
2017-01-22T04:31:34.487Z,96.69
2017-01-22T04:32:35.163Z,96.69
2017-01-22T04:33:35.835Z,96.78
2017-01-22T04:34:36.506Z,97.06
2017-01-22T04:35:37.180Z,96.88
2017-01-22T04:36:37.870Z,96.88
2017-01-22T04:37:38.525Z,96.88
2017-01-22T04:38:39.195Z,97.25
2017-01-22T04:39:39.876Z,97.35
2017-01-22T04:40:40.563Z,98.01
2017-01-22T04:41:41.237Z,97.54
2017-01-22T04:42:41.907Z,97.73
2017-01-22T04:43:42.584Z,97.63
2017-01-22T04:44:43.256Z,97.44
2017-01-22T04:45:43.934Z,97.54
2017-01-22T04:46:44.614Z,97.54
2017-01-22T04:47:45.296Z,97.44
2017-01-22T04:48:45.961Z,96.97
2017-01-22T04:49:46.640Z,96.59
2017-01-22T04:50:47.311Z,97.63
2017-01-22T04:51:48.028Z,97.82
2017-01-22T04:52:48.716Z,97.73
2017-01-22T04:53:49.403Z,98.01
2017-01-22T04:54:50.075Z,97.92
2017-01-22T04:55:50.751Z,97.54
2017-01-22T04:56:51.437Z,97.73
2017-01-22T04:57:52.101Z,97.54
2017-01-22T04:58:52.790Z,97.82
2017-01-22T04:59:53.479Z,97.54
2017-01-22T05:00:54.150Z,97.54
2017-01-22T05:01:54.820Z,97.92
2017-01-22T05:02:55.512Z,97.82
2017-01-22T05:03:56.160Z,97.73
2017-01-22T05:04:56.834Z,97.63
2017-01-22T05:05:57.515Z,97.73
2017-01-22T05:06:58.199Z,97.82
2017-01-22T05:07:58.869Z,97.25
2017-01-22T05:08:59.537Z,97.82
2017-01-22T05:10:00.219Z,97.25
2017-01-22T05:11:00.918Z,97.35
2017-01-22T05:12:01.602Z,97.63
2017-01-22T05:13:02.283Z,98.11
2017-01-22T05:14:02.956Z,98.3
2017-01-22T05:15:03.644Z,98.63
2017-01-22T05:16:04.316Z,98.77
2017-01-22T05:17:04.993Z,98.58
2017-01-22T05:18:05.669Z,98.68
2017-01-22T05:19:06.347Z,99.33
2017-01-22T05:20:07.031Z,98.68
2017-01-22T05:21:07.702Z,99.19
2017-01-22T05:22:08.378Z,99.33
2017-01-22T05:23:09.052Z,99.43
2017-01-22T05:24:09.754Z,99.24
2017-01-22T05:25:10.436Z,99.15
2017-01-22T05:26:11.119Z,99.43
2017-01-22T05:27:11.801Z,98.77
2017-01-22T05:28:12.471Z,99.38
2017-01-22T05:29:13.135Z,99.29
2017-01-22T05:30:13.819Z,99.01
2017-01-22T05:31:14.508Z,98.96
2017-01-22T05:32:15.176Z,99.52
2017-01-22T05:33:15.844Z,99.62
2017-01-22T05:34:16.515Z,98.96
2017-01-22T05:35:17.219Z,99.15
2017-01-22T05:36:17.900Z,98.39
2017-01-22T05:37:18.577Z,99.05
2017-01-22T05:38:19.252Z,98.77
2017-01-22T05:39:19.937Z,99.1
2017-01-22T05:40:20.614Z,98.96
2017-01-22T05:41:21.292Z,98.96
2017-01-22T05:42:21.965Z,98.86
2017-01-22T05:43:22.632Z,99.33
2017-01-22T05:44:23.304Z,99.05
2017-01-22T05:45:23.993Z,98.68
2017-01-22T05:46:24.684Z,98.77
2017-01-22T05:47:25.356Z,98.77
2017-01-22T05:48:26.041Z,98.3
2017-01-22T05:49:26.728Z,98.01
2017-01-22T05:50:27.422Z,98.68
2017-01-22T05:51:28.092Z,98.49
2017-01-22T05:52:28.791Z,98.77
2017-01-22T05:53:29.465Z,98.68
2017-01-22T05:54:30.147Z,98.77
2017-01-22T05:55:30.837Z,98.68
2017-01-22T05:56:31.511Z,98.86
2017-01-22T05:57:32.179Z,98.68
2017-01-22T05:58:32.856Z,98.77
2017-01-22T05:59:33.557Z,98.58
2017-01-22T06:00:34.216Z,98.86
2017-01-22T06:01:34.887Z,98.96
2017-01-22T06:02:35.550Z,98.77
2017-01-22T06:03:36.220Z,98.77
2017-01-22T06:04:36.888Z,98.77
2017-01-22T06:05:37.562Z,99.1
2017-01-22T06:06:38.247Z,99.1
2017-01-22T06:07:38.909Z,98.82
2017-01-22T06:08:39.594Z,99.19
2017-01-22T06:09:40.319Z,99.48
2017-01-22T06:10:41.006Z,99.66
2017-01-22T06:11:41.691Z,99.66
2017-01-22T06:12:42.374Z,99.76
2017-01-22T06:13:43.055Z,99.95
2017-01-22T06:14:43.734Z,99.66
2017-01-22T06:15:44.422Z,99.95
2017-01-22T06:16:45.091Z,99.62
2017-01-22T06:17:45.774Z,99.1
2017-01-22T06:18:46.453Z,99.57
2017-01-22T06:19:47.130Z,99.76
2017-01-22T06:20:47.817Z,99.66
2017-01-22T06:21:48.514Z,99.85
2017-01-22T06:22:49.202Z,99.95
2017-01-22T06:23:49.878Z,99.85
2017-01-22T06:24:50.546Z,99.95
2017-01-22T06:25:51.219Z,99.76
2017-01-22T06:26:51.897Z,99.76
2017-01-22T06:27:52.577Z,99.76
2017-01-22T06:28:53.243Z,99.95
2017-01-22T06:29:53.923Z,99.99
2017-01-22T06:30:54.606Z,99.66
2017-01-22T06:31:55.276Z,99.99
2017-01-22T06:32:55.946Z,99.76
2017-01-22T06:33:56.626Z,99.48
2017-01-22T06:34:57.326Z,99.71
2017-01-22T06:35:58.000Z,99.85
2017-01-22T06:36:58.675Z,99.76
2017-01-22T06:37:59.345Z,99.71
2017-01-22T06:39:00.025Z,99.85
2017-01-22T06:40:00.705Z,99.95
2017-01-22T06:41:01.363Z,99.66
2017-01-22T06:42:02.027Z,99.66
2017-01-22T06:43:02.712Z,99.99
2017-01-22T06:44:03.392Z,99.76
2017-01-22T06:45:04.065Z,99.85
2017-01-22T06:46:04.743Z,99.99
2017-01-22T06:47:05.419Z,99.99
2017-01-22T06:48:06.099Z,99.95
2017-01-22T06:49:06.767Z,99.95
2017-01-22T06:50:07.475Z,99.66
2017-01-22T06:51:08.152Z,99.99
2017-01-22T06:52:08.833Z,99.95
2017-01-22T06:53:09.500Z,99.99
2017-01-22T06:54:10.185Z,99.57
2017-01-22T06:55:10.858Z,99.99
2017-01-22T06:56:11.539Z,99.99
2017-01-22T06:57:12.202Z,99.99
2017-01-22T06:58:12.877Z,99.99
2017-01-22T06:59:13.556Z,99.99
2017-01-22T07:00:14.248Z,99.99
2017-01-22T07:01:14.914Z,99.99
2017-01-22T07:02:15.592Z,99.99
2017-01-22T07:03:16.276Z,99.99
2017-01-22T07:04:16.959Z,99.99
2017-01-22T07:05:17.631Z,99.99
2017-01-22T07:06:18.309Z,99.99
2017-01-22T07:07:18.988Z,99.99
2017-01-22T07:08:19.660Z,99.99
2017-01-22T07:09:20.346Z,99.99
2017-01-22T07:10:21.006Z,99.99
2017-01-22T07:11:21.677Z,99.99
2017-01-22T07:12:22.355Z,99.99
2017-01-22T07:13:23.027Z,99.99
2017-01-22T07:14:23.709Z,99.76
2017-01-22T07:15:24.386Z,99.99
2017-01-22T07:16:25.081Z,99.95
2017-01-22T07:17:25.759Z,99.85
2017-01-22T07:18:26.430Z,99.66
2017-01-22T07:19:27.111Z,99.66
2017-01-22T07:20:27.775Z,99.85
2017-01-22T07:21:28.446Z,99.85
2017-01-22T07:22:29.117Z,99.66
2017-01-22T07:23:29.794Z,99.95
2017-01-22T07:24:30.465Z,99.99
2017-01-22T07:25:31.138Z,99.85
2017-01-22T07:26:31.825Z,99.76
2017-01-22T07:27:32.497Z,99.76
2017-01-22T07:28:33.188Z,99.76
2017-01-22T07:29:33.859Z,99.66
2017-01-22T07:30:34.533Z,99.76
2017-01-22T07:31:35.226Z,99.85
2017-01-22T07:32:35.925Z,99.76
2017-01-22T07:33:36.606Z,99.99
2017-01-22T07:34:37.287Z,99.99
2017-01-22T07:35:37.964Z,99.99
2017-01-22T07:36:38.647Z,99.99
2017-01-22T07:37:39.323Z,99.99
2017-01-22T07:38:39.998Z,99.99
2017-01-22T07:39:40.680Z,99.99
2017-01-22T07:40:41.346Z,99.99
2017-01-22T07:41:42.105Z,99.99
2017-01-22T07:42:42.786Z,99.99
2017-01-22T07:43:43.452Z,99.99
2017-01-22T07:44:44.158Z,99.99
2017-01-22T07:45:44.832Z,99.99
2017-01-22T07:46:45.530Z,99.99
2017-01-22T07:47:46.205Z,99.99
2017-01-22T07:48:46.876Z,99.99
2017-01-22T07:49:47.559Z,99.99
2017-01-22T07:50:48.230Z,99.99
2017-01-22T07:51:48.912Z,99.99
2017-01-22T07:52:49.575Z,99.99
2017-01-22T07:53:50.251Z,99.99
2017-01-22T07:54:50.918Z,99.99
2017-01-22T07:55:51.593Z,99.99
2017-01-22T07:56:52.272Z,99.99
2017-01-22T07:57:52.954Z,99.99
2017-01-22T07:58:53.643Z,99.99
2017-01-22T07:59:54.325Z,99.99
2017-01-22T08:00:54.996Z,99.99
2017-01-22T08:01:55.674Z,99.99
2017-01-22T08:02:56.378Z,99.99
2017-01-22T08:03:57.052Z,99.99
2017-01-22T08:04:57.743Z,99.99
2017-01-22T08:05:58.417Z,99.99
2017-01-22T08:06:59.090Z,99.99
2017-01-22T08:07:59.757Z,99.99
2017-01-22T08:09:00.444Z,99.99
2017-01-22T08:10:01.106Z,99.99
2017-01-22T08:11:01.783Z,99.99
2017-01-22T08:12:02.485Z,99.99
2017-01-22T08:13:03.167Z,99.99
2017-01-22T08:14:03.836Z,99.99
2017-01-22T08:15:04.519Z,99.99
2017-01-22T08:16:05.184Z,99.99
2017-01-22T08:17:05.868Z,99.99
2017-01-22T08:18:06.559Z,99.99
2017-01-22T08:19:07.222Z,99.99
2017-01-22T08:20:07.889Z,99.99
2017-01-22T08:21:08.571Z,99.99
2017-01-22T08:22:09.241Z,99.99
2017-01-22T08:23:09.910Z,99.99
2017-01-22T08:24:10.580Z,99.99
2017-01-22T08:25:11.258Z,99.99
2017-01-22T08:26:11.932Z,99.99
2017-01-22T08:27:12.601Z,99.99
2017-01-22T08:28:13.291Z,99.99
2017-01-22T08:29:13.979Z,99.99
2017-01-22T08:30:14.662Z,99.99
2017-01-22T08:31:15.343Z,99.99
2017-01-22T08:32:16.022Z,99.99
2017-01-22T08:33:16.690Z,99.99
2017-01-22T08:34:17.364Z,99.99
2017-01-22T08:35:18.057Z,99.99
2017-01-22T08:36:18.734Z,99.99
2017-01-22T08:37:19.440Z,99.99
2017-01-22T08:38:20.098Z,99.99
2017-01-22T08:39:20.795Z,99.99
2017-01-22T08:40:21.482Z,99.99
2017-01-22T08:41:22.173Z,99.99
2017-01-22T08:42:22.888Z,99.99
2017-01-22T08:43:23.576Z,99.99
2017-01-22T08:44:24.256Z,99.99
2017-01-22T08:45:24.953Z,99.99
2017-01-22T08:46:25.750Z,99.99
2017-01-22T08:47:26.396Z,99.99
2017-01-22T08:48:27.081Z,99.99
2017-01-22T08:49:27.758Z,99.99
2017-01-22T08:50:28.444Z,99.99
2017-01-22T08:51:29.124Z,99.99
2017-01-22T08:52:29.819Z,99.99
2017-01-22T08:53:30.488Z,99.99
2017-01-22T08:54:31.224Z,99.99
2017-01-22T08:55:31.918Z,99.99
2017-01-22T08:56:32.582Z,99.99
2017-01-22T08:57:33.240Z,99.95
2017-01-22T08:58:33.915Z,99.99
2017-01-22T08:59:34.608Z,99.99
2017-01-22T09:00:35.308Z,99.99
2017-01-22T09:01:36.015Z,99.99
2017-01-22T09:02:36.767Z,99.99
2017-01-22T09:03:37.461Z,99.99
2017-01-22T09:04:38.149Z,99.99
2017-01-22T09:05:38.880Z,99.99
2017-01-22T09:06:39.572Z,99.95
2017-01-22T09:07:40.277Z,99.95
2017-01-22T09:08:40.954Z,99.29
2017-01-22T09:09:41.652Z,99.29
2017-01-22T09:10:42.371Z,99.1
2017-01-22T09:11:43.045Z,99.29
2017-01-22T09:12:43.734Z,98.91
2017-01-22T09:13:44.442Z,98.25
2017-01-22T09:14:45.124Z,98.91
2017-01-22T09:15:45.857Z,98.91
2017-01-22T09:16:46.579Z,98.44
2017-01-22T09:17:47.317Z,99.1
2017-01-22T09:18:48.037Z,98.91
2017-01-22T09:19:48.728Z,98.53
2017-01-22T09:20:49.427Z,99.19
2017-01-22T09:21:50.112Z,98.72
2017-01-22T09:22:50.846Z,99.19
2017-01-22T09:23:51.546Z,99.1
2017-01-22T09:24:52.276Z,99.48
2017-01-22T09:25:52.987Z,99.19
2017-01-22T09:26:53.684Z,99.1
2017-01-22T09:27:54.374Z,99.01
2017-01-22T09:28:55.107Z,99.29
2017-01-22T09:29:55.941Z,99.29
2017-01-22T09:30:56.729Z,99.19
2017-01-22T09:31:57.476Z,98.44
2017-01-22T09:32:58.182Z,98.82
2017-01-22T09:33:58.885Z,97.87
2017-01-22T09:34:59.609Z,97.58
2017-01-22T09:36:00.346Z,97.58
2017-01-22T09:37:01.001Z,98.06
2017-01-22T09:38:01.812Z,97.58
2017-01-22T09:39:02.514Z,98.06
2017-01-22T09:40:03.223Z,97.58
2017-01-22T09:41:03.931Z,96.92
2017-01-22T09:42:04.637Z,96.83
2017-01-22T09:43:05.399Z,97.16
2017-01-22T09:44:06.147Z,96.92
2017-01-22T09:45:06.843Z,97.11
2017-01-22T09:46:07.632Z,96.83
2017-01-22T09:47:08.337Z,96.07
2017-01-22T09:48:09.041Z,96.83
2017-01-22T09:49:09.788Z,97.11
2017-01-22T09:50:10.524Z,97.2
2017-01-22T09:51:11.184Z,97.02
2017-01-22T09:52:11.899Z,97.06
2017-01-22T09:53:13.471Z,97.06
2017-01-22T09:54:14.185Z,96.16
2017-01-22T09:55:14.994Z,96.07
2017-01-22T09:56:15.689Z,96.54
2017-01-22T09:57:16.459Z,96.4
2017-01-22T09:58:17.367Z,96.12
2017-01-22T09:59:18.419Z,96.31
2017-01-22T10:00:19.222Z,96.02
2017-01-22T10:01:19.955Z,96.02
2017-01-22T10:02:20.691Z,95.74
2017-01-22T10:03:21.377Z,95.74
2017-01-22T10:04:22.117Z,94.98
2017-01-22T10:05:22.837Z,95.17
2017-01-22T10:06:23.586Z,95.36
2017-01-22T10:07:24.307Z,95.45
2017-01-22T10:08:25.052Z,95.12
2017-01-22T10:09:25.783Z,95.55
2017-01-22T10:10:26.537Z,95.12
2017-01-22T10:11:27.210Z,95.31
2017-01-22T10:12:28.011Z,95.5
2017-01-22T10:13:28.718Z,95.78
2017-01-22T10:14:29.420Z,95.5
2017-01-22T10:15:30.125Z,95.69
2017-01-22T10:16:30.815Z,95.97
2017-01-22T10:17:31.544Z,95.78
2017-01-22T10:18:32.266Z,95.69
2017-01-22T10:19:33.165Z,96.35
2017-01-22T10:20:33.888Z,96.45
2017-01-22T10:21:34.681Z,96.16
2017-01-22T10:22:35.350Z,96.83
2017-01-22T10:23:36.095Z,96.83
2017-01-22T10:24:36.839Z,97.2
2017-01-22T10:25:37.545Z,96.92
2017-01-22T10:26:38.253Z,96.26
2017-01-22T10:27:38.998Z,96.45
2017-01-22T10:28:39.710Z,96.45
2017-01-22T10:29:40.443Z,96.45
2017-01-22T10:30:41.166Z,96.26
2017-01-22T10:31:41.857Z,96.35
2017-01-22T10:32:42.547Z,96.92
2017-01-22T10:33:43.318Z,97.02
2017-01-22T10:34:44.042Z,96.92
2017-01-22T10:35:44.785Z,96.92
2017-01-22T10:36:45.490Z,96.26
2017-01-22T10:37:46.163Z,96.35
2017-01-22T10:38:46.932Z,96.54
2017-01-22T10:39:47.617Z,96.54
2017-01-22T10:40:48.320Z,96.35
2017-01-22T10:41:49.048Z,96.54
2017-01-22T10:42:49.772Z,95.97
2017-01-22T10:43:50.503Z,96.26
2017-01-22T10:44:51.174Z,96.73
2017-01-22T10:45:51.941Z,96.64
2017-01-22T10:46:52.689Z,96.83
2017-01-22T10:47:53.391Z,96.35
2017-01-22T10:48:54.093Z,96.16
2017-01-22T10:49:54.826Z,96.54
2017-01-22T10:50:55.576Z,95.4
2017-01-22T10:51:56.277Z,95.59
2017-01-22T10:52:56.988Z,95.97
2017-01-22T10:53:57.710Z,95.5
2017-01-22T10:54:58.414Z,95.97
2017-01-22T10:55:59.114Z,96.45
2017-01-22T10:56:59.805Z,95.78
2017-01-22T10:58:00.505Z,95.97
2017-01-22T10:59:01.214Z,96.26
2017-01-22T11:00:01.907Z,96.35
2017-01-22T11:01:02.591Z,96.64
2017-01-22T11:02:03.276Z,95.97
2017-01-22T11:03:03.959Z,95.69
2017-01-22T11:04:04.644Z,95.97
2017-01-22T11:05:05.340Z,95.69
2017-01-22T11:06:06.067Z,95.78
2017-01-22T11:07:06.755Z,95.97
2017-01-22T11:08:07.477Z,96.45
2017-01-22T11:09:08.130Z,96.59
2017-01-22T11:10:08.817Z,95.36
2017-01-22T11:11:09.507Z,95.36
2017-01-22T11:12:10.185Z,94.98
2017-01-22T11:13:10.890Z,94.79
2017-01-22T11:14:11.583Z,94.46
2017-01-22T11:15:12.251Z,94.84
2017-01-22T11:16:12.945Z,95.31
2017-01-22T11:17:13.630Z,95.03
2017-01-22T11:18:14.353Z,95.12
2017-01-22T11:19:15.048Z,95.03
2017-01-22T11:20:15.742Z,95.26
2017-01-22T11:21:16.444Z,95.4
2017-01-22T11:22:17.127Z,95.03
2017-01-22T11:23:17.823Z,95.69
2017-01-22T11:24:18.494Z,95.78
2017-01-22T11:25:19.181Z,95.78
2017-01-22T11:26:19.871Z,95.97
2017-01-22T11:27:20.544Z,95.88
2017-01-22T11:28:21.222Z,95.59
2017-01-22T11:29:21.905Z,95.5
2017-01-22T11:30:22.590Z,95.5
2017-01-22T11:31:23.302Z,95.31
2017-01-22T11:32:23.979Z,95.5
2017-01-22T11:33:24.669Z,96.45
2017-01-22T11:34:25.355Z,96.45
2017-01-22T11:35:26.037Z,95.78
2017-01-22T11:36:26.711Z,95.97
2017-01-22T11:37:27.398Z,95.69
2017-01-22T11:38:28.077Z,96.02
2017-01-22T11:39:28.763Z,95.78
2017-01-22T11:40:29.461Z,95.4
2017-01-22T11:41:30.155Z,95.69
2017-01-22T11:42:30.826Z,95.55
2017-01-22T11:43:31.493Z,95.31
2017-01-22T11:44:32.164Z,95.07
2017-01-22T11:45:32.842Z,95.07
2017-01-22T11:46:33.512Z,95.55
2017-01-22T11:47:34.213Z,95.36
2017-01-22T11:48:34.886Z,98.01
2017-01-22T11:49:35.562Z,96.07
2017-01-22T11:50:36.251Z,94.13
2017-01-22T11:51:36.931Z,93.27
2017-01-22T11:52:37.623Z,92.99
2017-01-22T11:53:38.293Z,92.9
2017-01-22T11:54:38.966Z,92.52
2017-01-22T11:55:39.652Z,92.8
2017-01-22T11:56:40.332Z,93.08
2017-01-22T11:57:40.997Z,92.99
2017-01-22T11:58:41.676Z,93.18
2017-01-22T11:59:42.392Z,93.56
2017-01-22T12:00:43.074Z,94.04
2017-01-22T12:01:43.769Z,93.75
2017-01-22T12:02:44.483Z,94.32
2017-01-22T12:03:45.171Z,94.42
2017-01-22T12:04:45.858Z,94.32
2017-01-22T12:05:46.548Z,94.32
2017-01-22T12:06:47.221Z,94.04
2017-01-22T12:07:47.899Z,93.84
2017-01-22T12:08:48.574Z,93.37
2017-01-22T12:09:49.232Z,93.46
2017-01-22T12:10:49.905Z,92.9
2017-01-22T12:11:50.585Z,93.46
2017-01-22T12:12:51.267Z,92.8
2017-01-22T12:13:51.943Z,93.18
2017-01-22T12:14:52.620Z,93.08
2017-01-22T12:15:53.305Z,93.75
2017-01-22T12:16:53.984Z,93.37
2017-01-22T12:17:54.667Z,93.94
2017-01-22T12:18:55.365Z,93.46
2017-01-22T12:19:56.069Z,93.84
2017-01-22T12:20:56.746Z,93.65
2017-01-22T12:21:57.430Z,94.42
2017-01-22T12:22:58.118Z,94.51
2017-01-22T12:23:58.809Z,94.79
2017-01-22T12:24:59.506Z,94.51
2017-01-22T12:26:00.178Z,94.32
2017-01-22T12:27:00.872Z,94.42
2017-01-22T12:28:01.545Z,94.23
2017-01-22T12:29:02.246Z,93.84
2017-01-22T12:30:02.929Z,94.04
2017-01-22T12:31:03.610Z,93.94
2017-01-22T12:32:04.293Z,94.32
2017-01-22T12:33:04.973Z,93.94
2017-01-22T12:34:05.707Z,94.32
2017-01-22T12:35:06.399Z,94.13
2017-01-22T12:36:07.082Z,94.79
2017-01-22T12:37:07.764Z,94.84
2017-01-22T12:38:08.447Z,94.93
2017-01-22T12:39:09.137Z,95.69
2017-01-22T12:40:09.815Z,95.69
2017-01-22T12:41:10.484Z,95.78
2017-01-22T12:42:11.158Z,95.74
2017-01-22T12:43:11.837Z,95.26
2017-01-22T12:44:12.548Z,95.17
2017-01-22T12:45:13.295Z,95.17
2017-01-22T12:46:13.971Z,95.64
2017-01-22T12:47:14.646Z,95.26
2017-01-22T12:48:15.314Z,95.45
2017-01-22T12:49:15.988Z,94.23
2017-01-22T12:50:16.663Z,94.89
2017-01-22T12:51:17.345Z,94.7
2017-01-22T12:52:18.023Z,93.94
2017-01-22T12:53:18.732Z,93.56
2017-01-22T12:54:19.452Z,94.04
2017-01-22T12:55:20.128Z,94.23
2017-01-22T12:56:20.825Z,93.65
2017-01-22T12:57:21.542Z,93.46
2017-01-22T12:58:22.213Z,93.37
2017-01-22T12:59:22.889Z,92.99
2017-01-22T13:00:23.585Z,93.27
2017-01-22T13:01:24.271Z,92.52
2017-01-22T13:02:24.954Z,92.71
2017-01-22T13:03:25.639Z,93.27